Airfield :
LOGIN :

Register | Disclaimer

   EN    FR    IT 

 










Legend :    VFR   Marginal VFR   IFR   Intensive IFR   Very Intensive IFR
Visi :
Ceiling :
>= 8 km
>= 3000ft
5 to 8 km
1000 to 3000 ft
1500m to 5 km
500 to 1000 ft
800 to 1500m
200 to 500 ft
< 800m
< 200 ft
Symbols :   Thunderstorms  Fog  Heavy snow  Heavy precipitations  Wind > 20 kt
SIGMETs :     Misc.  Thunderstorms  Icing  Turbulence  Mountain Waves  Volcanic Ashes







- Airport Elevation : 184 ft
- IATA code : BRU


EBBR - Bruxelles

CURRENT METAR :
  • 201150Z 24009KT 9999 FEW019 09/05 Q1023 NOSIG

EXPIRED METARs :
  • 201120Z 23010KT 9999 FEW018 09/05 Q1023 NOSIG
  • 201050Z 23010KT 9999 FEW018 09/05 Q1023 NOSIG
  • 201020Z 22010KT CAVOK 08/05 Q1023 NOSIG
  • 200950Z 23009KT CAVOK 08/04 Q1023 NOSIG
  • 200920Z 23009KT CAVOK 07/04 Q1023 NOSIG

TAF TAF EBBR
Valid from the 20 at 12:00 until the 21 at 18:00 UTC


201100Z 2012/2118 22008KT 9999 FEW025
No reported NOTAMs for that airfield.



MET'MAP, your aeronautical weather chart ! - Copyright ORBIFLY December 2007 - Disclaimer

ORBIFLY MET'MAP TEAM :

Programming & Development : Alexandra Zaïnal
Concept & Development : Baudouin d'Aumeries
Co-Development & Prog : Marc-Olivier Méhu
Technical & hardware support : Manuel Goepfert

Contact : metmap@orbifly.com




SOURCES & CREDITS :

   NOAA